Time;durP1;ratioP1;P1;durP2;ratioP2;P2;SDS_P1;SDS_P2;PMS_P1;PMS_P2;Temp;Humidity;BMP_temperature;BMP_pressure;BME280_temperature;BME280_humidity;BME280_pressure;Samples;Min_cycle;Max_cycle;Signal;HPM_P1;HPM_P2
2021/09/05 00:01:47;;;;;;;9.50;4.67;;;;;;;17.44;100.00;101467.34;5034634;28;20227;-72
2021/09/05 00:04:13;;;;;;;11.60;4.80;;;;;;;17.42;100.00;101470.13;5036292;28;20169;-72
2021/09/05 00:06:38;;;;;;;10.17;4.40;;;;;;;17.42;100.00;101462.16;5041273;28;20415;-72
2021/09/05 00:09:04;;;;;;;7.33;4.40;;;;;;;17.42;100.00;101456.84;5038767;28;20173;-74
2021/09/05 00:11:29;;;;;;;8.87;4.90;;;;;;;17.41;100.00;101470.25;5037737;28;20197;-73
2021/09/05 00:13:55;;;;;;;7.27;5.17;;;;;;;17.41;100.00;101462.28;5033921;28;20162;-74
2021/09/05 00:16:20;;;;;;;9.83;5.30;;;;;;;17.39;100.00;101464.25;5048268;28;20180;-75
2021/09/05 00:18:47;;;;;;;7.97;4.60;;;;;;;17.38;100.00;101466.06;5049525;28;20248;-74
2021/09/05 00:21:12;;;;;;;7.93;4.73;;;;;;;17.29;100.00;101464.13;5035802;28;20647;-73
2021/09/05 00:23:38;;;;;;;7.67;4.30;;;;;;;17.34;100.00;101472.59;5030596;28;20413;-76
2021/09/05 00:26:03;;;;;;;10.17;5.27;;;;;;;17.31;100.00;101467.53;5029713;28;20253;-73
2021/09/05 00:28:30;;;;;;;9.90;4.53;;;;;;;17.30;100.00;101464.97;5039748;28;20777;-74
2021/09/05 00:30:56;;;;;;;9.80;4.40;;;;;;;17.22;100.00;101459.47;5038511;28;20232;-73
2021/09/05 00:33:21;;;;;;;7.87;4.70;;;;;;;17.16;100.00;101458.19;5046307;28;20562;-75
2021/09/05 00:35:47;;;;;;;7.97;4.73;;;;;;;17.14;100.00;101458.28;5029685;28;20165;-75
2021/09/05 00:38:12;;;;;;;14.20;5.10;;;;;;;17.12;100.00;101459.41;5029725;28;20154;-73
2021/09/05 00:40:38;;;;;;;7.40;4.83;;;;;;;17.11;100.00;101450.59;5030122;28;20589;-74
2021/09/05 00:43:04;;;;;;;9.10;5.20;;;;;;;17.09;100.00;101460.50;5035422;28;20203;-74
2021/09/05 00:45:29;;;;;;;9.13;5.13;;;;;;;17.09;100.00;101452.53;5048455;28;20680;-74
2021/09/05 00:47:55;;;;;;;6.17;4.13;;;;;;;17.09;100.00;101457.84;5043374;28;20170;-73
2021/09/05 00:50:20;;;;;;;8.47;4.90;;;;;;;17.07;100.00;101453.63;5044123;28;20169;-73
2021/09/05 00:52:46;;;;;;;9.03;5.13;;;;;;;17.04;100.00;101453.88;5042751;28;20173;-72
2021/09/05 00:55:11;;;;;;;11.23;5.20;;;;;;;17.04;100.00;101459.19;5029068;28;20173;-72
2021/09/05 00:57:37;;;;;;;11.90;4.97;;;;;;;17.02;100.00;101455.81;5028263;28;20754;-72
2021/09/05 01:00:03;;;;;;;9.30;4.60;;;;;;;17.04;100.00;101453.88;5041155;28;20165;-73
2021/09/05 01:02:28;;;;;;;8.50;4.70;;;;;;;17.03;100.00;101452.19;5038337;28;20174;-74
2021/09/05 01:04:54;;;;;;;14.50;4.90;;;;;;;17.04;100.00;101456.53;5029373;28;20411;-74
2021/09/05 01:07:19;;;;;;;8.43;4.37;;;;;;;17.04;100.00;101453.88;5029374;28;20563;-73
2021/09/05 01:09:45;;;;;;;8.10;4.53;;;;;;;17.02;100.00;101464.63;5027154;28;20181;-75
2021/09/05 01:12:10;;;;;;;10.37;4.30;;;;;;;16.99;100.00;101469.34;5032287;28;20189;-73
2021/09/05 01:14:36;;;;;;;7.43;4.83;;;;;;;16.96;100.00;101464.28;5034102;28;20173;-73
2021/09/05 01:17:02;;;;;;;6.87;4.20;;;;;;;17.00;100.00;101473.66;5043237;28;20184;-73
2021/09/05 01:19:28;;;;;;;8.20;4.97;;;;;;;16.86;100.00;101472.16;5026256;28;20224;-74
2021/09/05 01:21:54;;;;;;;8.17;4.80;;;;;;;16.90;100.00;101474.44;5033923;28;20415;-74
2021/09/05 01:24:21;;;;;;;11.77;4.93;;;;;;;16.84;100.00;101469.63;5028614;28;20405;-73
2021/09/05 01:26:49;;;;;;;7.73;4.60;;;;;;;16.81;100.00;101477.00;5029078;28;20255;-74
2021/09/05 01:29:15;;;;;;;10.80;4.70;;;;;;;16.79;100.00;101470.97;5029982;28;20472;-73
2021/09/05 01:31:48;;;;;;;12.00;4.53;;;;;;;16.74;100.00;101478.47;5031319;28;20464;-74
2021/09/05 01:34:15;;;;;;;8.17;4.67;;;;;;;16.68;100.00;101474.44;5021214;28;20429;-74
2021/09/05 01:36:42;;;;;;;11.23;5.50;;;;;;;16.61;100.00;101474.09;5028148;28;20417;-73
2021/09/05 01:39:09;;;;;;;14.07;5.37;;;;;;;16.51;100.00;101473.16;5049790;28;20415;-74
2021/09/05 01:41:35;;;;;;;13.83;5.67;;;;;;;16.45;100.00;101480.75;5042234;28;20408;-74
2021/09/05 01:44:03;;;;;;;15.37;5.20;;;;;;;16.33;100.00;101475.47;5039055;28;20400;-76
2021/09/05 01:46:29;;;;;;;14.17;5.67;;;;;;;16.30;100.00;101481.00;5038358;28;20415;-73
2021/09/05 01:48:55;;;;;;;12.50;6.97;;;;;;;16.23;100.00;101479.81;5038769;28;21278;-73
2021/09/05 01:51:21;;;;;;;16.50;6.63;;;;;;;16.20;100.00;101481.88;5037293;28;20194;-73
2021/09/05 01:53:46;;;;;;;16.57;5.73;;;;;;;16.17;100.00;101490.03;5029723;28;21003;-74
2021/09/05 01:56:12;;;;;;;12.47;5.70;;;;;;;16.16;100.00;101489.22;5039203;28;20703;-76
2021/09/05 01:58:37;;;;;;;11.67;6.47;;;;;;;16.13;100.00;101478.84;5030726;28;20193;-75
2021/09/05 02:01:03;;;;;;;11.10;5.90;;;;;;;16.08;100.00;101492.47;5030501;28;20193;-75
2021/09/05 02:03:28;;;;;;;9.97;5.17;;;;;;;16.11;100.00;101482.59;5031260;28;20166;-74
2021/09/05 02:05:54;;;;;;;11.27;5.57;;;;;;;16.08;100.00;101489.81;5030779;28;20158;-74
2021/09/05 02:08:20;;;;;;;10.37;5.53;;;;;;;16.11;100.00;101483.44;5028574;28;20158;-76
2021/09/05 02:10:45;;;;;;;9.27;5.93;;;;;;;16.11;100.00;101485.25;5028569;28;20482;-76
2021/09/05 02:13:10;;;;;;;9.23;5.37;;;;;;;16.04;100.00;101484.88;5045766;28;20165;-77
2021/09/05 02:15:36;;;;;;;10.80;6.23;;;;;;;16.05;100.00;101487.41;5028201;28;20168;-76
2021/09/05 02:18:02;;;;;;;10.30;6.00;;;;;;;16.03;100.00;101485.84;5033157;28;20175;-74
2021/09/05 02:20:27;;;;;;;12.30;5.40;;;;;;;15.95;100.00;101489.09;5015490;28;20162;-76
2021/09/05 02:22:54;;;;;;;16.17;6.03;;;;;;;15.89;100.00;101491.38;5031308;28;20178;-74
2021/09/05 02:25:19;;;;;;;19.83;8.30;;;;;;;15.78;100.00;101487.72;5032562;28;20158;-77
2021/09/05 02:27:45;;;;;;;20.60;11.20;;;;;;;15.75;100.00;101490.63;5011498;28;20464;-74
2021/09/05 02:30:11;;;;;;;16.43;8.23;;;;;;;15.75;100.00;101489.78;5015633;28;20205;-76
2021/09/05 02:32:37;;;;;;;16.50;8.20;;;;;;;15.76;100.00;101484.34;5030047;28;20237;-77
2021/09/05 02:35:04;;;;;;;13.87;7.70;;;;;;;15.73;100.00;101487.25;5036758;28;20415;-75
2021/09/05 02:37:30;;;;;;;13.00;7.20;;;;;;;15.79;100.00;101481.47;5050339;28;20820;-73
2021/09/05 02:39:55;;;;;;;10.27;5.40;;;;;;;15.79;100.00;101483.25;5039125;28;20465;-74
2021/09/05 02:42:20;;;;;;;11.97;4.93;;;;;;;15.81;100.00;101481.34;5030918;28;20170;-76
2021/09/05 02:44:46;;;;;;;9.27;5.50;;;;;;;15.82;100.00;101480.38;5029364;28;20196;-73
2021/09/05 02:47:11;;;;;;;10.50;6.00;;;;;;;15.86;100.00;101480.97;5032748;28;20260;-74
2021/09/05 02:49:37;;;;;;;11.90;6.57;;;;;;;15.85;100.00;101488.09;5036750;28;20162;-75
2021/09/05 02:52:03;;;;;;;11.23;6.97;;;;;;;15.90;100.00;101485.94;5034044;28;20263;-76
2021/09/05 02:54:28;;;;;;;18.20;8.30;;;;;;;15.92;100.00;101491.97;5040638;28;20165;-77
2021/09/05 02:56:54;;;;;;;12.17;6.20;;;;;;;15.91;100.00;101492.94;5031805;28;20221;-75
2021/09/05 02:59:19;;;;;;;12.50;5.70;;;;;;;15.92;100.00;101494.63;5030495;28;20216;-75
2021/09/05 03:01:45;;;;;;;10.20;5.50;;;;;;;15.91;100.00;101487.63;5029279;28;20181;-74
2021/09/05 03:04:10;;;;;;;12.33;6.10;;;;;;;15.95;100.00;101493.56;5030190;28;20209;-73
2021/09/05 03:06:36;;;;;;;13.00;6.17;;;;;;;15.93;100.00;101491.00;5029143;28;20177;-74
2021/09/05 03:09:02;;;;;;;10.77;6.10;;;;;;;15.89;100.00;101494.84;5038006;28;20714;-73
2021/09/05 03:11:27;;;;;;;19.10;6.93;;;;;;;15.91;100.00;101502.69;5031237;28;20452;-74
2021/09/05 03:13:53;;;;;;;13.20;5.97;;;;;;;15.84;100.00;101499.66;5029698;28;20397;-74
2021/09/05 03:16:19;;;;;;;14.63;6.73;;;;;;;15.86;100.00;101496.88;5028379;28;20530;-75
2021/09/05 03:18:44;;;;;;;18.00;6.43;;;;;;;15.85;100.00;101505.81;5033799;28;20239;-74
2021/09/05 03:21:10;;;;;;;16.23;6.93;;;;;;;15.83;100.00;101503.28;5036535;28;20538;-73
2021/09/05 03:23:35;;;;;;;12.60;6.53;;;;;;;15.81;100.00;101507.84;5034425;28;20164;-74
2021/09/05 03:26:00;;;;;;;10.63;6.40;;;;;;;15.73;100.00;101503.16;5052999;28;20708;-75
2021/09/05 03:28:26;;;;;;;14.73;6.97;;;;;;;15.74;100.00;101503.97;5048488;28;20201;-73
2021/09/05 03:30:52;;;;;;;18.80;6.63;;;;;;;15.67;100.00;101505.41;5033292;28;20646;-74
2021/09/05 03:33:17;;;;;;;12.63;6.43;;;;;;;15.58;100.00;101506.94;5033979;28;20593;-73
2021/09/05 03:35:43;;;;;;;17.73;7.13;;;;;;;15.61;100.00;101516.44;5036245;28;20212;-73
2021/09/05 03:38:08;;;;;;;16.00;6.80;;;;;;;15.62;100.00;101515.50;5033347;28;20166;-74
2021/09/05 03:40:34;;;;;;;18.20;6.90;;;;;;;15.60;100.00;101518.25;5032230;28;20582;-73
2021/09/05 03:42:59;;;;;;;17.00;5.93;;;;;;;15.62;100.00;101520.81;5033009;28;20563;-75
2021/09/05 03:45:25;;;;;;;21.87;6.67;;;;;;;15.57;100.00;101529.09;5045815;28;20154;-75
2021/09/05 03:47:51;;;;;;;14.70;7.87;;;;;;;15.54;100.00;101529.28;5033584;28;20170;-76
2021/09/05 03:50:17;;;;;;;12.57;6.20;;;;;;;15.54;100.00;101531.94;5033793;28;20211;-75
2021/09/05 03:52:44;;;;;;;17.03;6.60;;;;;;;15.55;100.00;101529.16;5033357;28;20495;-74
2021/09/05 03:55:10;;;;;;;16.80;7.53;;;;;;;15.54;100.00;101535.44;5033175;28;20712;-73
2021/09/05 03:57:35;;;;;;;18.90;9.10;;;;;;;15.54;100.00;101535.44;5033623;28;20420;-76
2021/09/05 04:00:01;;;;;;;15.13;6.47;;;;;;;15.52;100.00;101534.72;5029574;28;20409;-74
2021/09/05 04:02:28;;;;;;;12.23;6.70;;;;;;;15.50;100.00;101534.00;5034809;28;20193;-73
2021/09/05 04:04:53;;;;;;;14.53;6.90;;;;;;;15.54;100.00;101534.59;5053746;28;20465;-74
2021/09/05 04:07:20;;;;;;;14.60;6.93;;;;;;;15.55;100.00;101541.56;5053007;28;20248;-74
2021/09/05 04:12:30;;;;;;;19.87;7.00;;;;;;;15.67;100.00;101546.00;5052591;28;21030;-73
2021/09/05 04:14:55;;;;;;;11.93;7.00;;;;;;;15.70;100.00;101544.91;5051348;28;20498;-76
2021/09/05 04:17:21;;;;;;;12.70;6.87;;;;;;;15.73;100.00;101550.84;5030820;28;21887;-75
2021/09/05 04:19:47;;;;;;;14.90;7.17;;;;;;;15.73;100.00;101548.19;5056296;28;20248;-74
2021/09/05 04:22:12;;;;;;;15.57;6.40;;;;;;;15.85;100.00;101550.84;5056318;28;20247;-74
2021/09/05 04:24:41;;;;;;;16.60;7.53;;;;;;;15.85;100.00;101548.19;5050532;28;20211;-74
2021/09/05 04:27:07;;;;;;;15.83;7.13;;;;;;;15.85;100.00;101548.19;5052691;28;20178;-74
2021/09/05 04:29:32;;;;;;;16.90;7.10;;;;;;;16.00;100.00;101552.34;5047353;28;20515;-74
2021/09/05 04:31:58;;;;;;;14.50;6.93;;;;;;;16.04;100.00;101554.66;5032459;28;20189;-74
2021/09/05 04:34:23;;;;;;;12.17;6.40;;;;;;;16.02;100.00;101553.06;5030901;28;20166;-76
2021/09/05 04:36:49;;;;;;;16.07;6.70;;;;;;;15.98;100.00;101554.28;5043053;28;20232;-75
2021/09/05 04:39:14;;;;;;;13.90;7.10;;;;;;;16.03;100.00;101554.78;5051242;28;20161;-75
2021/09/05 04:41:40;;;;;;;13.27;6.10;;;;;;;16.14;100.00;101556.59;5052397;28;20161;-74
2021/09/05 04:44:05;;;;;;;12.17;6.20;;;;;;;16.19;100.00;101560.56;5051262;28;20146;-73
2021/09/05 04:46:31;;;;;;;12.37;6.20;;;;;;;16.31;100.00;101561.41;5050407;28;20153;-75
2021/09/05 04:48:56;;;;;;;13.20;7.17;;;;;;;16.31;100.00;101559.59;5050915;28;20173;-74
2021/09/05 04:51:22;;;;;;;11.80;6.80;;;;;;;16.42;100.00;101563.25;5052051;28;20196;-74
2021/09/05 04:53:48;;;;;;;13.30;6.77;;;;;;;16.43;100.00;101560.47;5050787;28;20169;-74
2021/09/05 04:56:14;;;;;;;14.27;7.70;;;;;;;16.41;100.00;101574.84;5051820;28;20235;-73
2021/09/05 04:58:41;;;;;;;15.07;7.37;;;;;;;16.45;100.00;101565.66;5051915;28;20188;-75
2021/09/05 05:01:08;;;;;;;11.70;7.33;;;;;;;16.57;100.00;101568.19;5049960;28;20411;-75
2021/09/05 05:03:33;;;;;;;18.63;9.60;;;;;;;16.66;100.00;101566.63;5031820;28;20401;-76
2021/09/05 05:05:59;;;;;;;15.13;6.90;;;;;;;16.70;100.00;101564.59;5031668;28;20459;-78
2021/09/05 05:08:24;;;;;;;15.13;6.67;;;;;;;16.80;100.00;101565.56;5031730;28;20158;-74
2021/09/05 05:10:50;;;;;;;16.50;7.67;;;;;;;16.76;100.00;101562.28;5031733;28;20244;-75
2021/09/05 05:13:15;;;;;;;18.43;11.73;;;;;;;16.76;100.00;101562.28;5043338;28;20264;-75
2021/09/05 05:15:41;;;;;;;27.77;16.37;;;;;;;16.77;100.00;101568.44;5051589;28;20580;-74
2021/09/05 05:18:07;;;;;;;31.27;20.43;;;;;;;16.84;100.00;101573.13;5032901;28;20174;-74
2021/09/05 05:20:32;;;;;;;28.73;17.50;;;;;;;16.78;100.00;101571.00;5031006;28;20253;-74
2021/09/05 05:22:58;;;;;;;22.20;15.07;;;;;;;16.81;100.00;101573.41;5031212;28;20531;-74
2021/09/05 05:25:26;;;;;;;22.00;10.00;;;;;;;16.85;100.00;101577.50;5022699;28;20189;-75
2021/09/05 05:27:51;;;;;;;17.00;10.23;;;;;;;16.92;100.00;101577.84;5030415;28;20217;-75
2021/09/05 05:30:17;;;;;;;13.73;8.30;;;;;;;17.06;100.00;101576.72;5033655;28;20526;-74
2021/09/05 05:32:43;;;;;;;14.60;7.23;;;;;;;17.14;100.00;101576.97;5030017;28;20216;-76
2021/09/05 05:35:09;;;;;;;19.43;8.40;;;;;;;17.20;100.00;101579.13;5037311;28;20505;-75
2021/09/05 05:37:35;;;;;;;20.20;7.10;;;;;;;17.26;100.00;101575.13;5030867;28;20186;-77
2021/09/05 05:40:00;;;;;;;10.93;6.37;;;;;;;17.35;100.00;101577.88;5030272;28;20440;-75
2021/09/05 05:42:26;;;;;;;15.43;8.13;;;;;;;17.43;100.00;101577.25;5031064;28;20599;-74
2021/09/05 05:44:52;;;;;;;21.07;12.83;;;;;;;17.48;100.00;101569.75;5030446;28;20412;-73
2021/09/05 05:47:17;;;;;;;21.13;16.60;;;;;;;17.62;100.00;101565.94;5030619;28;20192;-75
2021/09/05 05:49:46;;;;;;;23.77;18.00;;;;;;;17.74;100.00;101573.75;5036870;28;20166;-74
2021/09/05 05:52:13;;;;;;;21.83;12.03;;;;;;;17.91;100.00;101580.34;5029912;28;20196;-75
2021/09/05 05:54:38;;;;;;;15.63;9.97;;;;;;;18.01;100.00;101583.91;5030307;28;20471;-75
2021/09/05 05:57:04;;;;;;;16.60;8.40;;;;;;;18.15;100.00;101573.91;5029938;28;20443;-75
2021/09/05 05:59:30;;;;;;;11.80;7.00;;;;;;;18.28;100.00;101579.84;5031038;28;20173;-75
2021/09/05 06:01:55;;;;;;;11.73;7.07;;;;;;;18.37;100.00;101579.06;5020384;28;20181;-74
2021/09/05 06:04:21;;;;;;;12.67;6.73;;;;;;;18.48;100.00;101576.31;5027781;28;20737;-76
2021/09/05 06:06:46;;;;;;;9.60;6.33;;;;;;;18.62;100.00;101577.78;5026232;28;20170;-74
2021/09/05 06:09:12;;;;;;;13.43;7.33;;;;;;;18.65;100.00;101580.16;5025991;28;20178;-74
2021/09/05 06:11:38;;;;;;;12.00;6.40;;;;;;;18.75;100.00;101580.25;5025040;28;20691;-74
2021/09/05 06:14:04;;;;;;;15.77;5.60;;;;;;;18.83;100.00;101585.75;5025269;28;20527;-74
2021/09/05 06:16:30;;;;;;;15.20;6.00;;;;;;;18.93;100.00;101581.28;5025303;28;20165;-74
2021/09/05 06:18:56;;;;;;;12.80;6.40;;;;;;;19.08;100.00;101579.06;5026109;28;20419;-74
2021/09/05 06:21:22;;;;;;;13.37;6.90;;;;;;;19.22;100.00;101580.50;5023799;28;20173;-74
2021/09/05 06:23:47;;;;;;;12.67;6.63;;;;;;;19.33;100.00;101583.03;5027494;28;20413;-76
2021/09/05 06:26:13;;;;;;;13.73;6.30;;;;;;;19.46;100.00;101583.63;5027536;28;20409;-75
2021/09/05 06:28:38;;;;;;;15.50;7.47;;;;;;;19.55;100.00;101581.94;5034656;28;20217;-74
2021/09/05 06:31:04;;;;;;;10.70;6.27;;;;;;;19.61;100.00;101570.75;5027976;28;20197;-75
2021/09/05 06:33:29;;;;;;;11.60;6.17;;;;;;;19.76;100.00;101579.16;5027501;28;20571;-75
2021/09/05 06:35:55;;;;;;;11.53;6.77;;;;;;;19.87;100.00;101584.31;5027140;28;20181;-75
2021/09/05 06:38:20;;;;;;;10.83;6.33;;;;;;;20.09;100.00;101577.84;5028549;28;20162;-76
2021/09/05 06:40:46;;;;;;;11.47;6.53;;;;;;;20.20;100.00;101581.19;5027735;28;20202;-75
2021/09/05 06:43:11;;;;;;;15.87;6.93;;;;;;;20.29;100.00;101584.81;5026947;28;20163;-75
2021/09/05 06:45:36;;;;;;;7.93;5.00;;;;;;;20.40;100.00;101578.47;5026980;28;20663;-75
2021/09/05 06:48:02;;;;;;;9.80;5.90;;;;;;;20.52;100.00;101587.19;5026313;28;20182;-76
2021/09/05 06:50:28;;;;;;;13.73;6.00;;;;;;;20.63;100.00;101579.84;5027131;28;20553;-75
2021/09/05 06:52:53;;;;;;;10.97;5.20;;;;;;;20.74;100.00;101584.13;5030022;28;20682;-75
2021/09/05 06:55:20;;;;;;;10.50;5.10;;;;;;;20.81;100.00;101573.69;5030387;28;20178;-76
2021/09/05 06:57:45;;;;;;;10.03;4.60;;;;;;;21.01;100.00;101585.97;5031513;28;20409;-77
2021/09/05 07:00:11;;;;;;;8.53;4.60;;;;;;;21.16;100.00;101578.25;5031572;28;20177;-74
2021/09/05 07:02:37;;;;;;;9.73;5.47;;;;;;;21.27;100.00;101578.91;5030753;28;20166;-75
2021/09/05 07:05:04;;;;;;;11.23;5.30;;;;;;;21.30;100.00;101578.59;5031449;28;20400;-76
2021/09/05 07:07:29;;;;;;;10.37;5.30;;;;;;;21.50;100.00;101573.97;5031264;28;20205;-76
2021/09/05 07:09:55;;;;;;;8.33;4.10;;;;;;;21.69;100.00;101582.81;5031187;28;20451;-75
2021/09/05 07:12:20;;;;;;;14.13;5.93;;;;;;;21.82;100.00;101575.22;5030836;28;20659;-74
2021/09/05 07:14:46;;;;;;;9.20;5.03;;;;;;;21.94;100.00;101586.53;5029535;28;20602;-75
2021/09/05 07:17:12;;;;;;;6.90;4.50;;;;;;;21.94;100.00;101584.72;5031026;28;20193;-75
2021/09/05 07:19:39;;;;;;;8.97;4.70;;;;;;;22.03;100.00;101586.44;5031198;28;20911;-74
2021/09/05 07:22:05;;;;;;;9.57;4.33;;;;;;;22.10;100.00;101595.56;5029605;28;21066;-76
2021/09/05 07:24:31;;;;;;;7.70;4.20;;;;;;;22.13;100.00;101581.00;5031116;28;20920;-75
2021/09/05 07:26:56;;;;;;;10.03;4.60;;;;;;;22.23;100.00;101592.47;5031761;28;20185;-75
2021/09/05 07:29:21;;;;;;;9.70;4.57;;;;;;;22.38;100.00;101596.25;5031782;28;20158;-73
2021/09/05 07:31:47;;;;;;;8.30;4.43;;;;;;;22.46;100.00;101595.47;5030460;28;20197;-75
2021/09/05 07:34:13;;;;;;;10.03;4.40;;;;;;;22.56;100.00;101592.66;5031066;28;20174;-75
2021/09/05 07:36:38;;;;;;;10.40;4.67;;;;;;;22.61;100.00;101591.19;5031229;28;20643;-75
2021/09/05 07:39:04;;;;;;;9.60;4.33;;;;;;;22.83;100.00;101594.31;5030989;28;20201;-75
2021/09/05 07:41:30;;;;;;;7.17;4.10;;;;;;;22.95;100.00;101601.06;5030319;28;20540;-75
2021/09/05 07:43:56;;;;;;;7.70;4.40;;;;;;;23.16;100.00;101587.22;5013654;28;20294;-76
2021/09/05 07:46:22;;;;;;;9.50;4.63;;;;;;;23.36;100.00;101580.56;5022147;28;20408;-74
2021/09/05 07:48:47;;;;;;;7.93;5.20;;;;;;;23.43;100.00;101586.13;5029800;28;20235;-74
2021/09/05 07:51:13;;;;;;;9.23;4.50;;;;;;;23.53;100.00;101590.31;5030139;28;20694;-75
2021/09/05 07:53:38;;;;;;;6.13;3.87;;;;;;;23.65;100.00;101598.03;5030167;28;20193;-74
2021/09/05 07:56:04;;;;;;;6.90;4.33;;;;;;;23.78;100.00;101588.50;5030300;28;20162;-74
2021/09/05 07:58:30;;;;;;;6.50;3.93;;;;;;;23.82;100.00;101582.81;5030067;28;20162;-73
2021/09/05 08:00:56;;;;;;;8.60;4.47;;;;;;;23.92;100.00;101592.34;5028280;28;20424;-73
2021/09/05 08:03:22;;;;;;;7.73;4.40;;;;;;;24.03;100.00;101586.66;5048821;28;20146;-74
2021/09/05 08:05:47;;;;;;;8.00;4.23;;;;;;;24.06;100.00;101589.00;5042579;28;20193;-74
2021/09/05 08:08:13;;;;;;;11.10;4.77;;;;;;;24.19;100.00;101587.66;5029854;28;20169;-76
2021/09/05 08:10:39;;;;;;;8.90;4.07;;;;;;;24.23;100.00;101594.34;5019903;28;20177;-77
2021/09/05 08:13:05;;;;;;;11.80;4.30;;;;;;;24.35;100.00;101593.00;5026883;28;20443;-75
2021/09/05 08:15:31;;;;;;;8.53;4.17;;;;;;;24.43;100.00;101590.28;5025205;28;20273;-72
2021/09/05 08:17:56;;;;;;;6.87;4.10;;;;;;;24.58;100.00;101593.09;5023417;28;21156;-74
2021/09/05 08:20:22;;;;;;;8.20;4.27;;;;;;;24.63;100.00;101594.25;5019736;28;20161;-73
2021/09/05 08:22:47;;;;;;;9.43;4.57;;;;;;;24.68;100.00;101591.03;5021355;28;20315;-73
2021/09/05 08:25:14;;;;;;;6.77;3.70;;;;;;;24.74;100.00;101592.22;5031348;28;20170;-74
2021/09/05 08:27:40;;;;;;;7.30;3.70;;;;;;;24.83;100.00;101596.53;5031301;28;20225;-74
2021/09/05 08:30:06;;;;;;;6.20;3.60;;;;;;;24.87;100.00;101597.88;5043846;28;20400;-72
2021/09/05 08:32:31;;;;;;;7.80;3.67;;;;;;;24.88;100.00;101592.31;5034843;28;20579;-75
2021/09/05 08:34:57;;;;;;;8.10;3.77;;;;;;;25.01;100.00;101589.03;5035300;28;20188;-74
2021/09/05 08:37:22;;;;;;;11.10;5.80;;;;;;;25.00;100.00;101590.06;5038628;28;20250;-73
2021/09/05 08:39:48;;;;;;;7.70;4.37;;;;;;;25.07;100.00;101590.22;5045913;28;20173;-76
2021/09/05 08:42:15;;;;;;;8.60;4.07;;;;;;;25.05;100.00;101584.19;5023246;28;20543;-73
2021/09/05 08:44:40;;;;;;;8.17;4.67;;;;;;;25.02;100.00;101585.34;5037270;28;20165;-75
2021/09/05 08:47:08;;;;;;;6.47;3.47;;;;;;;24.99;100.00;101580.31;5048632;28;20399;-77
2021/09/05 08:49:35;;;;;;;5.83;3.70;;;;;;;25.04;100.00;101583.34;5039447;28;20604;-75
2021/09/05 08:52:00;;;;;;;6.50;3.97;;;;;;;25.05;100.00;101576.97;5030877;28;20468;-74
2021/09/05 08:54:26;;;;;;;6.80;3.50;;;;;;;25.14;100.00;101583.97;5030676;28;20456;-71
2021/09/05 08:56:53;;;;;;;7.30;5.30;;;;;;;25.14;100.00;101581.25;5024208;28;20173;-72
2021/09/05 08:59:19;;;;;;;6.90;3.40;;;;;;;25.17;100.00;101583.63;5018837;28;20162;-72
2021/09/05 09:01:55;;;;;;;7.37;4.10;;;;;;;25.21;100.00;101585.94;5031354;28;20407;-71
2021/09/05 09:04:21;;;;;;;9.40;4.20;;;;;;;25.14;100.00;101589.34;5031156;28;20384;-73
2021/09/05 09:06:47;;;;;;;9.67;4.40;;;;;;;25.17;100.00;101580.94;5031011;28;20411;-72
2021/09/05 09:09:12;;;;;;;7.30;3.57;;;;;;;25.17;100.00;101580.94;5031010;28;20165;-72
2021/09/05 09:11:48;;;;;;;6.70;3.93;;;;;;;25.15;100.00;101585.63;5031351;28;20575;-74
2021/09/05 09:14:15;;;;;;;7.10;4.07;;;;;;;25.26;100.00;101579.03;5049651;28;20605;-73
2021/09/05 09:16:42;;;;;;;5.93;3.30;;;;;;;25.28;100.00;101587.75;5046990;28;20407;-72
2021/09/05 09:19:07;;;;;;;7.10;4.20;;;;;;;25.38;100.00;101577.56;5050817;28;21193;-72
2021/09/05 09:21:40;;;;;;;8.93;3.87;;;;;;;25.44;100.00;101578.72;5033640;28;20458;-71
2021/09/05 09:24:18;;;;;;;8.53;3.43;;;;;;;25.46;100.00;101580.22;5031029;28;20170;-72
2021/09/05 09:26:58;;;;;;;9.30;3.90;;;;;;;25.45;100.00;101575.00;5023508;28;20428;-74
2021/09/05 09:29:24;;;;;;;6.63;2.97;;;;;;;25.55;100.00;101577.47;5030116;28;20421;-73
2021/09/05 09:32:01;;;;;;;7.17;3.70;;;;;;;25.59;100.00;101576.91;5016487;28;20449;-71
2021/09/05 09:34:27;;;;;;;7.07;3.73;;;;;;;25.70;100.00;101573.81;5048041;28;20623;-72
2021/09/05 09:36:58;;;;;;;7.30;3.70;;;;;;;25.70;100.00;101572.97;5038268;28;20389;-71
2021/09/05 09:39:28;;;;;;;6.23;3.80;;;;;;;25.80;100.00;101568.19;5047319;28;20412;-72
2021/09/05 09:41:54;;;;;;;6.30;3.60;;;;;;;25.79;100.00;101565.69;5050121;28;20461;-72
2021/09/05 09:44:19;;;;;;;5.43;3.60;;;;;;;25.80;100.00;101568.19;5031009;28;20404;-71
2021/09/05 09:46:45;;;;;;;6.00;3.50;;;;;;;25.84;100.00;101563.28;5034013;28;20179;-73
2021/09/05 09:49:13;;;;;;;8.40;4.00;;;;;;;25.84;100.00;101563.28;5031600;28;20417;-72
2021/09/05 09:51:42;;;;;;;7.40;4.07;;;;;;;25.95;100.00;101560.16;5032781;28;20211;-70
2021/09/05 09:54:08;;;;;;;5.30;3.90;;;;;;;25.96;100.00;101557.28;5032906;28;20825;-72
2021/09/05 09:56:34;;;;;;;8.20;3.87;;;;;;;26.08;100.00;101554.16;5026487;28;20422;-72
2021/09/05 09:59:03;;;;;;;7.40;3.33;;;;;;;26.15;100.00;101561.31;5026102;28;20431;-72
2021/09/05 10:01:31;;;;;;;17.63;4.63;;;;;;;26.20;100.00;101552.66;5020935;28;20511;-73
2021/09/05 10:03:59;;;;;;;6.30;3.80;;;;;;;26.20;100.00;101556.19;5028055;28;20444;-72
2021/09/05 10:06:29;;;;;;;8.90;3.83;;;;;;;26.27;100.00;101551.72;5035216;28;20436;-72
2021/09/05 10:09:00;;;;;;;11.17;4.27;;;;;;;26.33;100.00;101552.84;5032794;28;20422;-71
2021/09/05 10:11:26;;;;;;;6.83;3.83;;;;;;;26.45;100.00;101546.00;5048506;28;20475;-72
2021/09/05 10:13:55;;;;;;;6.50;3.30;;;;;;;26.47;100.00;101553.91;5043156;28;20420;-72
2021/09/05 10:16:21;;;;;;;6.40;3.73;;;;;;;26.44;100.00;101556.97;5037614;28;20420;-73
2021/09/05 10:18:49;;;;;;;7.33;3.70;;;;;;;26.58;100.00;101552.59;5032862;28;20416;-73
2021/09/05 10:21:20;;;;;;;6.70;3.80;;;;;;;26.63;100.00;101551.00;5031052;28;20157;-73
2021/09/05 10:23:49;;;;;;;7.20;3.97;;;;;;;26.90;100.00;101556.72;5031713;28;20412;-71
2021/09/05 10:26:16;;;;;;;6.07;3.53;;;;;;;27.08;100.00;101552.59;5029806;28;20420;-76
2021/09/05 10:28:45;;;;;;;6.90;2.60;;;;;;;27.20;100.00;101552.09;5037984;28;20522;-74
2021/09/05 10:31:12;;;;;;;8.30;3.70;;;;;;;27.58;100.00;101547.25;5030773;28;20780;-74
2021/09/05 10:33:44;;;;;;;6.63;3.67;;;;;;;27.84;98.91;101538.59;5033844;28;20451;-76
2021/09/05 10:36:19;;;;;;;6.70;4.67;;;;;;;27.84;97.61;101535.88;5023642;28;20460;-79
2021/09/05 10:38:46;;;;;;;7.87;3.77;;;;;;;27.56;100.00;101538.53;5032503;28;20405;-77
2021/09/05 10:41:21;;;;;;;7.37;3.77;;;;;;;27.69;99.24;101538.69;5039363;28;20584;-78
2021/09/05 10:43:49;;;;;;;9.40;3.60;;;;;;;27.70;99.61;101536.81;5036681;28;20412;-78
2021/09/05 10:46:17;;;;;;;6.63;3.90;;;;;;;28.06;96.64;101545.59;5034101;28;20396;-74
2021/09/05 10:48:58;;;;;;;8.03;4.00;;;;;;;28.52;92.39;101539.66;5045950;28;20438;-76
2021/09/05 10:51:27;;;;;;;6.70;4.13;;;;;;;29.48;86.54;101540.34;5014257;28;20491;-78
2021/09/05 10:53:53;;;;;;;5.67;3.30;;;;;;;30.96;77.65;101539.84;5020563;28;20434;-77
2021/09/05 10:56:21;;;;;;;12.50;5.47;;;;;;;33.09;66.88;101532.94;5034310;28;20901;-77
2021/09/05 10:58:47;;;;;;;7.80;3.90;;;;;;;34.13;62.67;101540.69;5033418;28;20173;-77
2021/09/05 11:01:23;;;;;;;7.30;4.13;;;;;;;35.08;58.40;101539.38;5030820;28;20420;-79
2021/09/05 11:04:10;;;;;;;7.50;4.17;;;;;;;35.42;57.94;101538.34;5032909;28;20241;-78
2021/09/05 11:06:42;;;;;;;7.73;3.40;;;;;;;36.10;56.51;101537.19;5028338;28;20418;-79
2021/09/05 11:09:22;;;;;;;6.90;3.77;;;;;;;35.58;54.83;101542.97;5026457;28;20507;-78
2021/09/05 11:11:59;;;;;;;5.73;3.57;;;;;;;34.73;58.08;101543.06;5030963;28;20479;-79